createdAt,value
2023-04-02T00:02:22.024Z,10.40
2023-04-02T00:08:39.125Z,10.40
2023-04-02T00:14:46.696Z,10.30
2023-04-02T00:21:00.721Z,10.10
2023-04-02T00:27:03.579Z,10.00
2023-04-02T00:33:05.902Z,9.90
2023-04-02T00:39:16.144Z,9.90
2023-04-02T00:45:33.558Z,9.90
2023-04-02T00:51:44.787Z,9.80
2023-04-02T00:57:49.175Z,9.80
2023-04-02T01:04:01.988Z,9.70
2023-04-02T01:10:13.592Z,9.80
2023-04-02T01:16:31.521Z,9.70
2023-04-02T01:22:35.447Z,9.60
2023-04-02T01:28:51.961Z,9.60
2023-04-02T01:34:54.782Z,9.70
2023-04-02T01:41:08.277Z,9.80
2023-04-02T01:47:16.256Z,9.80
2023-04-02T01:53:21.164Z,9.70
2023-04-02T01:59:24.450Z,9.70
2023-04-02T02:05:33.144Z,9.80
2023-04-02T02:11:36.828Z,9.80
2023-04-02T02:17:39.673Z,9.80
2023-04-02T02:23:42.330Z,9.90
2023-04-02T02:29:46.723Z,9.80
2023-04-02T02:35:52.396Z,9.80
2023-04-02T02:42:25.267Z,9.80
2023-04-02T02:48:37.053Z,9.80
2023-04-02T02:54:48.891Z,9.80
2023-04-02T03:00:51.344Z,9.80
2023-04-02T03:06:56.181Z,9.80
2023-04-02T03:13:22.338Z,9.80
2023-04-02T03:19:36.544Z,9.80
2023-04-02T03:25:44.212Z,9.80
2023-04-02T03:31:54.353Z,9.80
2023-04-02T03:38:13.188Z,9.80
2023-04-02T03:44:26.536Z,9.80
2023-04-02T03:50:37.931Z,9.80
2023-04-02T03:56:40.670Z,9.80
2023-04-02T04:02:55.113Z,9.80
2023-04-02T04:09:10.535Z,9.80
2023-04-02T04:15:16.776Z,9.80
2023-04-02T04:21:37.922Z,9.80
2023-04-02T04:28:16.777Z,9.90
2023-04-02T04:34:47.004Z,10.00
2023-04-02T04:40:59.975Z,10.00
2023-04-02T04:47:35.256Z,10.10
2023-04-02T04:53:50.099Z,10.10
2023-04-02T05:00:12.967Z,10.20
2023-04-02T05:06:38.782Z,10.30
2023-04-02T05:12:44.353Z,10.40
2023-04-02T05:19:09.443Z,10.70
2023-04-02T05:25:29.722Z,11.00
2023-04-02T05:31:47.016Z,11.00
2023-04-02T05:37:49.974Z,11.30
2023-04-02T05:44:29.656Z,11.80
2023-04-02T05:50:37.877Z,12.30
2023-04-02T05:56:48.132Z,12.60
2023-04-02T06:03:07.770Z,13.10
2023-04-02T06:09:21.644Z,13.30
2023-04-02T06:15:25.765Z,13.30
2023-04-02T06:21:32.998Z,13.20
2023-04-02T06:27:35.868Z,13.50
2023-04-02T06:33:38.796Z,13.50
2023-04-02T06:39:42.345Z,13.40
2023-04-02T06:45:49.882Z,13.30
2023-04-02T06:52:28.764Z,12.90
2023-04-02T06:58:32.188Z,12.70
2023-04-02T07:04:35.330Z,12.50
2023-04-02T07:10:38.011Z,12.40
2023-04-02T07:16:41.901Z,12.40
2023-04-02T07:22:44.306Z,12.50
2023-04-02T07:28:46.911Z,12.70
2023-04-02T07:34:49.364Z,12.90
2023-04-02T07:40:51.563Z,12.90
2023-04-02T07:46:56.897Z,12.90
2023-04-02T07:52:59.195Z,12.90
2023-04-02T07:59:01.637Z,13.00
2023-04-02T08:05:03.926Z,13.10
2023-04-02T08:11:06.932Z,13.20
2023-04-02T08:17:09.365Z,13.10
2023-04-02T08:23:17.613Z,13.10
2023-04-02T08:29:20.389Z,13.00
2023-04-02T08:35:23.965Z,12.80
2023-04-02T08:41:32.469Z,12.60
2023-04-02T08:47:39.819Z,12.70
2023-04-02T08:53:42.554Z,12.80
2023-04-02T08:59:45.266Z,12.80
2023-04-02T09:05:48.218Z,12.80
2023-04-02T09:11:55.843Z,12.70
2023-04-02T09:18:05.418Z,12.70
2023-04-02T09:24:13.512Z,12.70
2023-04-02T09:30:30.033Z,13.00
2023-04-02T09:36:37.994Z,13.10
2023-04-02T09:42:41.153Z,13.10
2023-04-02T09:48:54.870Z,13.40
2023-04-02T09:55:20.553Z,13.60
2023-04-02T10:01:45.155Z,13.70
2023-04-02T10:07:53.798Z,13.70
2023-04-02T10:14:21.979Z,13.80
2023-04-02T10:20:30.465Z,13.80
2023-04-02T10:26:35.704Z,13.70
2023-04-02T10:32:44.734Z,14.00
2023-04-02T10:38:53.182Z,14.10
2023-04-02T10:45:56.642Z,14.00
2023-04-02T10:52:00.252Z,14.20
2023-04-02T10:58:08.504Z,14.30
2023-04-02T11:04:30.108Z,14.40
2023-04-02T11:10:35.955Z,14.70
2023-04-02T11:16:42.476Z,14.80
2023-04-02T11:23:06.075Z,15.10
2023-04-02T11:29:20.401Z,15.20
2023-04-02T11:35:31.693Z,15.40
2023-04-02T11:41:56.607Z,15.40
2023-04-02T11:48:01.622Z,15.50
2023-04-02T11:54:04.845Z,15.50
2023-04-02T12:00:55.032Z,15.70
2023-04-02T12:07:11.574Z,16.80
2023-04-02T12:13:42.925Z,20.50
2023-04-02T12:19:51.656Z,23.50
2023-04-02T12:25:58.670Z,24.00
2023-04-02T12:32:01.388Z,25.40
2023-04-02T12:38:03.718Z,26.10
2023-04-02T12:44:28.058Z,24.60
2023-04-02T12:50:30.614Z,24.00
2023-04-02T12:56:32.860Z,23.90
2023-04-02T13:02:45.107Z,24.30
2023-04-02T13:08:47.467Z,24.60
2023-04-02T13:14:52.629Z,23.00
2023-04-02T13:20:57.754Z,23.20
2023-04-02T13:27:02.628Z,23.70
2023-04-02T13:33:05.146Z,24.50
2023-04-02T13:39:07.948Z,24.00
2023-04-02T13:45:39.550Z,22.40
2023-04-02T13:51:47.657Z,21.10
2023-04-02T13:57:50.800Z,20.50
2023-04-02T14:03:55.051Z,19.50
2023-04-02T14:10:23.052Z,18.60
2023-04-02T14:16:47.163Z,17.60
2023-04-02T14:23:01.013Z,17.10
2023-04-02T14:29:32.076Z,16.80
2023-04-02T14:35:42.409Z,16.70
2023-04-02T14:41:44.750Z,16.70
2023-04-02T14:48:00.008Z,16.70
2023-04-02T14:54:09.114Z,16.50
2023-04-02T15:00:24.524Z,15.70
2023-04-02T15:06:53.036Z,14.60
2023-04-02T15:12:57.648Z,14.40
2023-04-02T15:19:01.777Z,14.40
2023-04-02T15:25:50.341Z,14.40
2023-04-02T15:31:58.323Z,14.20
2023-04-02T15:38:15.938Z,14.20
2023-04-02T15:44:18.400Z,14.20
2023-04-02T15:50:51.184Z,14.10
2023-04-02T15:57:16.872Z,14.00
2023-04-02T16:03:34.385Z,13.90
2023-04-02T16:09:55.825Z,13.50
2023-04-02T16:16:19.500Z,13.00
2023-04-02T16:22:27.149Z,12.90
2023-04-02T16:29:06.832Z,12.70
2023-04-02T16:41:55.969Z,12.70
2023-04-02T16:48:06.541Z,12.60
2023-04-02T16:54:27.936Z,12.60
2023-04-02T17:00:39.138Z,12.70
2023-04-02T17:06:48.426Z,12.20
2023-04-02T17:13:14.475Z,216.20
2023-04-02T17:19:17.904Z,216.20
2023-04-02T17:25:26.158Z,216.20
2023-04-02T17:31:34.450Z,216.20
2023-04-02T17:37:47.072Z,216.20
2023-04-02T17:43:56.569Z,216.20
2023-04-02T17:50:11.342Z,216.20
2023-04-02T17:56:27.003Z,216.20
2023-04-02T18:02:47.680Z,216.20
2023-04-02T18:09:07.911Z,216.20
2023-04-02T18:15:18.790Z,11.40
2023-04-02T18:21:40.865Z,11.30
2023-04-02T18:28:10.237Z,11.20
2023-04-02T18:34:33.708Z,11.30
2023-04-02T18:40:50.840Z,11.30
2023-04-02T18:46:57.119Z,11.40
2023-04-02T18:53:01.795Z,11.50
2023-04-02T18:59:19.150Z,11.50
2023-04-02T19:05:40.918Z,11.50
2023-04-02T19:11:43.214Z,11.40
2023-04-02T19:18:05.427Z,11.30
2023-04-02T19:24:14.002Z,11.30
2023-04-02T19:31:03.504Z,11.20
2023-04-02T19:37:18.245Z,11.10
2023-04-02T19:43:20.536Z,10.90
2023-04-02T19:49:35.080Z,10.80
2023-04-02T19:55:38.025Z,10.70
2023-04-02T20:01:41.202Z,10.60
2023-04-02T20:07:43.304Z,10.40
2023-04-02T20:13:45.873Z,10.40
2023-04-02T20:19:48.132Z,10.30
2023-04-02T20:25:55.489Z,10.20
2023-04-02T20:31:57.937Z,10.10
2023-04-02T20:38:00.512Z,10.10
2023-04-02T20:44:03.317Z,10.00
2023-04-02T20:50:06.069Z,10.00
2023-04-02T20:56:16.214Z,9.90
2023-04-02T21:02:18.392Z,9.90
2023-04-02T21:08:21.655Z,9.80
2023-04-02T21:14:24.616Z,9.70
2023-04-02T21:20:27.460Z,9.70
2023-04-02T21:26:33.346Z,9.70
2023-04-02T21:32:36.752Z,9.90
2023-04-02T21:38:43.722Z,10.00
2023-04-02T21:44:46.324Z,10.00
2023-04-02T21:50:49.006Z,10.00
2023-04-02T21:56:51.911Z,10.00
2023-04-02T22:02:54.332Z,10.10
2023-04-02T22:09:02.091Z,10.10
2023-04-02T22:15:04.919Z,10.10
2023-04-02T22:21:08.087Z,10.00
2023-04-02T22:27:10.458Z,10.00
2023-04-02T22:33:13.151Z,9.90
2023-04-02T22:39:16.443Z,9.80
2023-04-02T22:45:21.234Z,9.70
2023-04-02T22:51:25.061Z,9.70
2023-04-02T22:57:27.891Z,9.60
2023-04-02T23:03:30.168Z,9.50
2023-04-02T23:09:32.428Z,9.40
2023-04-02T23:15:34.930Z,9.40
2023-04-02T23:21:37.227Z,9.40
2023-04-02T23:27:39.632Z,9.40
2023-04-02T23:33:42.160Z,9.40
2023-04-02T23:39:44.375Z,9.40
2023-04-02T23:45:50.836Z,9.50
2023-04-02T23:51:53.351Z,9.50
2023-04-02T23:57:55.768Z,9.50
